createdAt,value
2023-04-22T00:00:15.872Z,13.42
2023-04-22T00:02:44.475Z,13.40
2023-04-22T00:05:15.633Z,13.32
2023-04-22T00:07:45.221Z,13.13
2023-04-22T00:10:14.817Z,13.06
2023-04-22T00:12:42.665Z,13.03
2023-04-22T00:15:11.606Z,12.97
2023-04-22T00:17:40.176Z,12.93
2023-04-22T00:20:10.825Z,12.83
2023-04-22T00:22:38.868Z,12.76
2023-04-22T00:25:07.694Z,12.72
2023-04-22T00:27:36.893Z,12.67
2023-04-22T00:30:05.456Z,12.55
2023-04-22T00:32:33.551Z,12.65
2023-04-22T00:35:01.497Z,12.79
2023-04-22T00:37:29.638Z,12.91
2023-04-22T00:39:58.014Z,12.98
2023-04-22T00:42:27.200Z,13.01
2023-04-22T00:44:56.648Z,12.84
2023-04-22T00:47:26.888Z,12.49
2023-04-22T00:49:55.591Z,12.37
2023-04-22T00:52:23.525Z,12.41
2023-04-22T00:54:52.655Z,12.27
2023-04-22T00:57:20.932Z,12.28
2023-04-22T00:59:49.114Z,12.41
2023-04-22T01:02:19.242Z,12.54
2023-04-22T01:04:47.981Z,12.61
2023-04-22T01:07:15.906Z,12.67
2023-04-22T01:09:44.372Z,12.70
2023-04-22T01:12:12.545Z,12.60
2023-04-22T01:14:41.439Z,12.56
2023-04-22T01:17:12.077Z,12.33
2023-04-22T01:19:42.621Z,12.16
2023-04-22T01:22:13.979Z,12.20
2023-04-22T01:24:43.363Z,12.09
2023-04-22T01:27:12.042Z,12.06
2023-04-22T01:29:40.196Z,12.09
2023-04-22T01:32:08.303Z,12.13
2023-04-22T01:34:36.224Z,12.25
2023-04-22T01:37:04.142Z,12.27
2023-04-22T01:39:32.268Z,12.28
2023-04-22T01:42:02.166Z,12.24
2023-04-22T01:44:30.234Z,12.28
2023-04-22T01:46:58.159Z,12.27
2023-04-22T01:49:26.036Z,12.14
2023-04-22T01:51:53.934Z,12.12
2023-04-22T01:54:21.998Z,12.12
2023-04-22T01:56:52.827Z,12.10
2023-04-22T01:59:22.535Z,12.06
2023-04-22T02:01:51.539Z,11.78
2023-04-22T02:04:20.086Z,11.74
2023-04-22T02:06:48.049Z,11.71
2023-04-22T02:09:15.972Z,11.60
2023-04-22T02:11:43.822Z,11.59
2023-04-22T02:14:11.783Z,11.68
2023-04-22T02:16:41.817Z,11.58
2023-04-22T02:19:10.076Z,11.43
2023-04-22T02:21:38.091Z,11.61
2023-04-22T02:24:06.694Z,11.76
2023-04-22T02:26:34.588Z,11.64
2023-04-22T02:29:02.700Z,11.52
2023-04-22T02:31:30.701Z,11.47
2023-04-22T02:34:00.379Z,11.47
2023-04-22T02:36:28.812Z,11.57
2023-04-22T02:38:56.965Z,11.67
2023-04-22T02:41:25.241Z,11.69
2023-04-22T02:43:53.421Z,11.72
2023-04-22T02:46:21.474Z,11.75
2023-04-22T02:48:49.759Z,11.77
2023-04-22T02:51:19.407Z,11.71
2023-04-22T02:53:47.410Z,11.68
2023-04-22T02:56:15.424Z,11.66
2023-04-22T02:58:43.368Z,11.65
2023-04-22T03:01:11.781Z,11.67
2023-04-22T03:03:40.175Z,11.44
2023-04-22T03:06:10.847Z,11.31
2023-04-22T03:08:40.103Z,11.16
2023-04-22T03:11:08.564Z,11.09
2023-04-22T03:13:36.479Z,11.13
2023-04-22T03:16:04.390Z,11.11
2023-04-22T03:18:33.314Z,11.13
2023-04-22T03:21:01.241Z,11.10
2023-04-22T03:23:29.249Z,11.01
2023-04-22T03:25:58.487Z,10.85
2023-04-22T03:28:26.451Z,10.93
2023-04-22T03:30:55.133Z,10.90
2023-04-22T03:33:23.534Z,10.81
2023-04-22T03:35:56.810Z,10.70
2023-04-22T03:38:25.768Z,10.71
2023-04-22T03:40:53.989Z,10.74
2023-04-22T03:43:33.527Z,10.82
2023-04-22T03:46:08.147Z,10.75
2023-04-22T03:48:39.308Z,10.82
2023-04-22T03:51:12.808Z,10.95
2023-04-22T03:53:42.153Z,10.98
2023-04-22T03:56:13.131Z,10.97
2023-04-22T03:58:47.058Z,11.04
2023-04-22T04:01:14.948Z,11.11
2023-04-22T04:03:46.383Z,11.21
2023-04-22T04:06:16.186Z,11.34
2023-04-22T04:08:44.066Z,11.35
2023-04-22T04:11:12.160Z,11.25
2023-04-22T04:13:40.146Z,11.04
2023-04-22T04:16:18.954Z,11.01
2023-04-22T04:18:52.260Z,10.96
2023-04-22T04:21:22.887Z,11.09
2023-04-22T04:23:53.563Z,11.10
2023-04-22T04:26:27.539Z,11.21
2023-04-22T04:29:02.115Z,11.28
2023-04-22T04:31:31.546Z,11.30
2023-04-22T04:34:01.056Z,11.20
2023-04-22T04:36:29.472Z,11.16
2023-04-22T04:39:05.620Z,11.12
2023-04-22T04:41:34.072Z,11.22
2023-04-22T04:44:03.251Z,11.32
2023-04-22T04:46:37.714Z,11.20
2023-04-22T04:49:06.002Z,11.21
2023-04-22T04:51:41.267Z,11.26
2023-04-22T04:54:09.440Z,11.22
2023-04-22T04:56:40.674Z,11.27
2023-04-22T04:59:10.541Z,11.31
2023-04-22T05:01:41.440Z,11.47
2023-04-22T05:04:13.022Z,11.33
2023-04-22T05:06:43.074Z,11.24
2023-04-22T05:09:11.178Z,11.24
2023-04-22T05:11:39.067Z,11.29
2023-04-22T05:14:13.736Z,11.40
2023-04-22T05:16:44.958Z,11.39
2023-04-22T05:19:12.947Z,11.43
2023-04-22T05:21:40.912Z,11.37
2023-04-22T05:24:09.004Z,11.38
2023-04-22T05:26:37.281Z,11.53
2023-04-22T05:29:11.161Z,11.67
2023-04-22T05:31:39.256Z,11.73
2023-04-22T05:34:09.649Z,11.85
2023-04-22T05:36:38.706Z,11.95
2023-04-22T05:39:07.022Z,12.00
2023-04-22T05:41:35.970Z,11.91
2023-04-22T05:44:08.122Z,11.91
2023-04-22T05:46:36.291Z,11.98
2023-04-22T05:49:04.421Z,12.04
2023-04-22T05:51:53.636Z,12.10
2023-04-22T05:54:25.150Z,12.12
2023-04-22T05:56:53.082Z,11.94
2023-04-22T05:59:21.832Z,11.97
2023-04-22T06:01:50.550Z,12.07
2023-04-22T06:04:21.439Z,12.13
2023-04-22T06:06:49.866Z,12.17
2023-04-22T06:09:19.164Z,12.09
2023-04-22T06:11:47.088Z,12.11
2023-04-22T06:14:15.926Z,12.19
2023-04-22T06:16:45.592Z,12.23
2023-04-22T06:19:13.736Z,12.26
2023-04-22T06:21:42.560Z,12.27
2023-04-22T06:24:11.011Z,12.38
2023-04-22T06:26:40.530Z,12.49
2023-04-22T06:29:08.889Z,12.48
2023-04-22T06:31:40.289Z,12.56
2023-04-22T06:34:08.177Z,12.66
2023-04-22T06:36:38.403Z,12.70
2023-04-22T06:39:07.649Z,12.80
2023-04-22T06:41:50.227Z,12.89
2023-04-22T06:44:47.663Z,12.90
2023-04-22T06:47:36.413Z,12.96
2023-04-22T06:50:11.188Z,13.01
2023-04-22T06:52:48.759Z,13.06
2023-04-22T06:55:16.660Z,13.06
2023-04-22T06:57:46.162Z,13.10
2023-04-22T07:00:15.183Z,13.16
2023-04-22T07:02:43.377Z,13.21
2023-04-22T07:05:11.396Z,13.29
2023-04-22T07:07:40.065Z,13.31
2023-04-22T07:10:10.711Z,13.37
2023-04-22T07:12:46.462Z,13.47
2023-04-22T07:15:14.473Z,13.49
2023-04-22T07:17:42.380Z,13.50
2023-04-22T07:20:11.538Z,13.61
2023-04-22T07:22:39.311Z,13.67
2023-04-22T07:25:08.264Z,13.73
2023-04-22T07:27:37.142Z,13.82
2023-04-22T07:30:08.415Z,13.83
2023-04-22T07:32:36.259Z,13.81
2023-04-22T07:35:04.190Z,13.84
2023-04-22T07:37:32.150Z,13.97
2023-04-22T07:40:00.045Z,13.92
2023-04-22T07:42:27.937Z,14.11
2023-04-22T07:44:55.743Z,14.18
2023-04-22T07:47:25.019Z,14.26
2023-04-22T07:49:52.944Z,14.35
2023-04-22T07:52:21.055Z,14.40
2023-04-22T07:54:48.916Z,14.46
2023-04-22T07:57:16.895Z,14.51
2023-04-22T07:59:44.827Z,14.54
2023-04-22T08:02:12.782Z,14.61
2023-04-22T08:04:42.154Z,14.67
2023-04-22T08:07:29.815Z,14.72
2023-04-22T08:09:58.610Z,14.78
2023-04-22T08:12:26.445Z,14.83
2023-04-22T08:14:54.364Z,14.89
2023-04-22T08:17:22.876Z,14.95
2023-04-22T08:19:52.187Z,15.00
2023-04-22T08:22:20.133Z,15.05
2023-04-22T08:24:48.013Z,15.07
2023-04-22T08:27:15.929Z,15.12
2023-04-22T08:29:44.046Z,15.18
2023-04-22T08:32:12.097Z,15.20
2023-04-22T08:34:40.359Z,15.27
2023-04-22T08:37:10.310Z,15.29
2023-04-22T08:39:38.653Z,15.31
2023-04-22T08:42:06.824Z,15.32
2023-04-22T08:44:36.349Z,15.40
2023-04-22T08:47:04.842Z,15.42
2023-04-22T08:49:33.048Z,15.51
2023-04-22T08:52:00.869Z,15.51
2023-04-22T08:54:30.112Z,15.57
2023-04-22T08:56:58.706Z,15.57
2023-04-22T08:59:26.965Z,15.68
2023-04-22T09:01:56.912Z,15.72
2023-04-22T09:04:25.722Z,15.79
2023-04-22T09:06:53.609Z,15.84
2023-04-22T09:09:22.076Z,15.86
2023-04-22T09:11:51.536Z,15.93
2023-04-22T09:14:20.376Z,15.97
2023-04-22T09:16:49.586Z,16.02
2023-04-22T09:19:17.624Z,16.10
2023-04-22T09:21:49.109Z,16.13
2023-04-22T09:24:17.938Z,16.16
2023-04-22T09:26:45.825Z,16.19
2023-04-22T09:29:16.916Z,16.28
2023-04-22T09:31:49.782Z,16.36
2023-04-22T09:34:17.844Z,16.37
2023-04-22T09:36:46.766Z,16.42
2023-04-22T09:39:14.918Z,16.47
2023-04-22T09:41:42.926Z,16.52
2023-04-22T09:44:12.748Z,16.53
2023-04-22T09:46:43.864Z,16.53
2023-04-22T09:49:12.287Z,16.57
2023-04-22T09:51:42.290Z,16.62
2023-04-22T09:54:12.223Z,16.65
2023-04-22T09:56:49.313Z,16.74
2023-04-22T09:59:22.661Z,16.77
2023-04-22T10:01:54.505Z,16.79
2023-04-22T10:04:23.571Z,16.82
2023-04-22T10:06:52.120Z,16.80
2023-04-22T10:09:21.979Z,16.83
2023-04-22T10:11:51.802Z,16.91
2023-04-22T10:14:19.768Z,16.95
2023-04-22T10:16:48.827Z,16.91
2023-04-22T10:19:21.885Z,16.84
2023-04-22T10:21:53.487Z,16.91
2023-04-22T10:24:21.774Z,17.02
2023-04-22T10:26:52.257Z,17.17
2023-04-22T10:29:22.685Z,17.21
2023-04-22T10:31:58.242Z,17.24
2023-04-22T10:34:27.662Z,17.24
2023-04-22T10:37:00.889Z,17.30
2023-04-22T10:39:30.142Z,17.37
2023-04-22T10:42:06.390Z,17.40
2023-04-22T10:44:48.624Z,17.41
2023-04-22T10:47:27.283Z,17.45
2023-04-22T10:52:52.173Z,17.56
2023-04-22T10:55:21.345Z,17.55
2023-04-22T10:57:51.009Z,17.50
2023-04-22T11:00:52.341Z,17.52
2023-04-22T11:03:27.171Z,17.59
2023-04-22T11:06:17.053Z,17.62
2023-04-22T11:08:47.687Z,17.60
2023-04-22T11:11:18.508Z,17.60
2023-04-22T11:13:50.484Z,17.64
2023-04-22T11:16:22.471Z,17.71
2023-04-22T11:18:50.907Z,17.69
2023-04-22T11:21:19.454Z,17.70
2023-04-22T11:23:53.213Z,17.76
2023-04-22T11:26:34.727Z,17.76
2023-04-22T11:29:02.786Z,17.81
2023-04-22T11:31:30.847Z,17.84
2023-04-22T11:34:00.174Z,17.83
2023-04-22T11:36:28.921Z,17.85
2023-04-22T11:38:58.388Z,17.86
2023-04-22T11:41:26.436Z,17.91
2023-04-22T11:43:55.536Z,17.94
2023-04-22T11:46:30.302Z,17.97
2023-04-22T11:49:12.867Z,18.06
2023-04-22T11:51:53.498Z,18.09
2023-04-22T11:54:32.501Z,18.11
2023-04-22T11:57:03.294Z,18.16
2023-04-22T11:59:31.287Z,18.14
2023-04-22T12:01:59.125Z,18.17
2023-04-22T12:04:27.062Z,18.16
2023-04-22T12:06:55.151Z,18.13
2023-04-22T12:09:25.734Z,18.07
2023-04-22T12:11:54.991Z,18.14
2023-04-22T12:14:22.983Z,18.29
2023-04-22T12:16:51.765Z,18.36
2023-04-22T12:19:26.805Z,18.63
2023-04-22T12:21:56.907Z,18.88
2023-04-22T12:24:29.114Z,19.11
2023-04-22T12:26:58.592Z,19.19
2023-04-22T12:29:32.817Z,19.25
2023-04-22T12:32:00.797Z,19.16
2023-04-22T12:34:28.604Z,19.18
2023-04-22T12:36:56.551Z,19.19
2023-04-22T12:39:24.446Z,19.21
2023-04-22T12:41:52.315Z,19.28
2023-04-22T12:44:23.171Z,19.39
2023-04-22T12:46:52.591Z,19.48
2023-04-22T12:49:20.509Z,19.55
2023-04-22T12:51:48.442Z,19.66
2023-04-22T12:54:16.470Z,19.76
2023-04-22T12:56:46.100Z,19.86
2023-04-22T12:59:14.293Z,19.94
2023-04-22T13:01:43.592Z,20.03
2023-04-22T13:04:11.647Z,20.09
2023-04-22T13:06:40.092Z,20.28
2023-04-22T13:09:08.996Z,20.39
2023-04-22T13:11:38.026Z,20.56
2023-04-22T13:14:05.921Z,20.73
2023-04-22T13:16:33.842Z,20.84
2023-04-22T13:19:03.293Z,20.81
2023-04-22T13:21:31.929Z,20.82
2023-04-22T13:24:00.034Z,20.86
2023-04-22T13:26:28.002Z,20.91
2023-04-22T13:28:55.974Z,20.99
2023-04-22T13:31:23.862Z,21.06
2023-04-22T13:33:51.776Z,21.09
2023-04-22T13:36:21.005Z,21.20
2023-04-22T13:38:48.908Z,21.29
2023-04-22T13:41:16.868Z,21.48
2023-04-22T13:43:44.781Z,21.60
2023-04-22T13:46:12.711Z,21.71
2023-04-22T13:48:40.795Z,21.88
2023-04-22T13:51:08.802Z,21.92
2023-04-22T13:53:38.156Z,21.88
2023-04-22T13:56:06.280Z,22.05
2023-04-22T13:58:34.552Z,22.15
2023-04-22T14:01:02.422Z,22.14
2023-04-22T14:03:31.287Z,22.17
2023-04-22T14:06:00.948Z,22.29
2023-04-22T14:08:28.878Z,22.49
2023-04-22T14:10:59.308Z,22.66
2023-04-22T14:13:27.750Z,22.76
2023-04-22T14:15:56.047Z,22.80
2023-04-22T14:18:24.248Z,22.89
2023-04-22T14:20:53.031Z,23.02
2023-04-22T14:23:20.993Z,22.98
2023-04-22T14:25:49.895Z,23.02
2023-04-22T14:28:19.199Z,23.02
2023-04-22T14:30:47.212Z,23.07
2023-04-22T14:33:15.204Z,23.17
2023-04-22T14:35:43.409Z,23.30
2023-04-22T14:38:12.410Z,23.36
2023-04-22T14:40:40.421Z,23.41
2023-04-22T14:43:08.601Z,23.41
2023-04-22T14:45:37.892Z,23.37
2023-04-22T14:48:05.926Z,23.34
2023-04-22T14:50:34.128Z,23.37
2023-04-22T14:53:04.421Z,23.54
2023-04-22T14:55:32.445Z,23.65
2023-04-22T14:58:00.678Z,23.80
2023-04-22T15:00:29.571Z,23.95
2023-04-22T15:02:59.017Z,24.08
2023-04-22T15:05:26.933Z,24.05
2023-04-22T15:07:54.794Z,24.00
2023-04-22T15:10:22.798Z,23.97
2023-04-22T15:12:50.784Z,24.01
2023-04-22T15:15:18.778Z,24.13
2023-04-22T15:17:46.979Z,24.26
2023-04-22T15:20:16.299Z,24.29
2023-04-22T15:22:44.988Z,24.11
2023-04-22T15:25:12.932Z,24.03
2023-04-22T15:27:41.121Z,24.02
2023-04-22T15:30:10.907Z,24.18
2023-04-22T15:32:39.972Z,24.21
2023-04-22T15:35:08.989Z,24.18
2023-04-22T15:37:38.278Z,24.12
2023-04-22T15:40:07.873Z,24.13
2023-04-22T15:42:36.013Z,24.17
2023-04-22T15:45:04.372Z,24.12
2023-04-22T15:47:32.590Z,24.15
2023-04-22T15:50:06.218Z,24.21
2023-04-22T15:52:34.452Z,24.22
2023-04-22T15:55:03.728Z,24.21
2023-04-22T15:57:35.222Z,24.14
2023-04-22T16:00:10.885Z,24.25
2023-04-22T16:02:44.280Z,24.22
2023-04-22T16:05:13.937Z,24.20
2023-04-22T16:07:41.855Z,24.08
2023-04-22T16:10:12.125Z,23.95
2023-04-22T16:12:40.123Z,23.94
2023-04-22T16:15:09.506Z,23.85
2023-04-22T16:17:37.961Z,23.76
2023-04-22T16:20:07.323Z,23.71
2023-04-22T16:22:35.262Z,23.69
2023-04-22T16:25:03.266Z,23.59
2023-04-22T16:27:32.646Z,23.59
2023-04-22T16:30:01.030Z,23.59
2023-04-22T16:32:28.968Z,23.56
2023-04-22T16:34:56.976Z,23.53
2023-04-22T16:37:27.346Z,23.39
2023-04-22T16:39:55.385Z,23.21
2023-04-22T16:42:23.380Z,23.15
2023-04-22T16:44:52.672Z,23.17
2023-04-22T16:47:20.786Z,23.14
2023-04-22T16:49:48.746Z,23.05
2023-04-22T16:52:16.853Z,22.99
2023-04-22T16:54:44.835Z,22.89
2023-04-22T16:57:12.921Z,22.84
2023-04-22T16:59:41.041Z,22.80
2023-04-22T17:02:10.668Z,22.73
2023-04-22T17:04:38.620Z,22.65
2023-04-22T17:07:06.512Z,22.56
2023-04-22T17:09:34.396Z,22.41
2023-04-22T17:12:02.327Z,22.20
2023-04-22T17:14:31.001Z,21.94
2023-04-22T17:16:58.971Z,21.69
2023-04-22T17:19:28.359Z,21.42
2023-04-22T17:21:56.586Z,21.19
2023-04-22T17:24:24.856Z,20.97
2023-04-22T17:26:52.792Z,20.78
2023-04-22T17:29:21.673Z,20.61
2023-04-22T17:31:49.728Z,20.45
2023-04-22T17:34:17.675Z,20.29
2023-04-22T17:36:46.920Z,20.12
2023-04-22T17:39:14.954Z,19.98
2023-04-22T17:41:42.901Z,19.83
2023-04-22T17:44:11.276Z,19.66
2023-04-22T17:46:39.159Z,19.52
2023-04-22T17:49:06.973Z,19.38
2023-04-22T17:51:34.942Z,19.24
2023-04-22T17:54:05.236Z,19.12
2023-04-22T17:56:33.249Z,19.00
2023-04-22T17:59:01.199Z,18.93
2023-04-22T18:01:30.012Z,18.86
2023-04-22T18:03:57.967Z,18.77
2023-04-22T18:06:25.953Z,18.75
2023-04-22T18:08:53.962Z,18.68
2023-04-22T18:11:23.900Z,18.61
2023-04-22T18:13:51.884Z,18.57
2023-04-22T18:16:19.755Z,18.52
2023-04-22T18:18:47.610Z,18.44
2023-04-22T18:21:15.564Z,18.39
2023-04-22T18:23:43.484Z,18.30
2023-04-22T18:26:11.541Z,18.24
2023-04-22T18:28:41.199Z,18.16
2023-04-22T18:31:09.271Z,18.10
2023-04-22T18:33:37.475Z,18.05
2023-04-22T18:36:06.218Z,18.00
2023-04-22T18:38:34.204Z,17.95
2023-04-22T18:41:02.273Z,17.93
2023-04-22T18:43:30.568Z,17.88
2023-04-22T18:46:00.050Z,17.83
2023-04-22T18:48:28.030Z,17.78
2023-04-22T18:50:56.051Z,17.73
2023-04-22T18:53:23.939Z,17.69
2023-04-22T18:55:51.790Z,17.63
2023-04-22T18:58:21.410Z,17.60
2023-04-22T19:00:49.321Z,17.57
2023-04-22T19:03:19.444Z,17.55
2023-04-22T19:05:47.504Z,17.50
2023-04-22T19:08:15.305Z,17.45
2023-04-22T19:10:43.418Z,17.43
2023-04-22T19:13:22.368Z,17.36
2023-04-22T19:15:56.480Z,17.31
2023-04-22T19:18:25.968Z,17.24
2023-04-22T19:20:53.982Z,17.20
2023-04-22T19:23:21.864Z,17.20
2023-04-22T19:25:51.519Z,17.18
2023-04-22T19:28:19.394Z,17.11
2023-04-22T19:30:47.276Z,17.07
2023-04-22T19:33:15.656Z,17.04
2023-04-22T19:35:45.050Z,16.96
2023-04-22T19:38:16.304Z,16.88
2023-04-22T19:40:44.342Z,16.71
2023-04-22T19:43:12.328Z,16.71
2023-04-22T19:45:40.723Z,16.69
2023-04-22T19:48:09.637Z,16.57
2023-04-22T19:50:37.851Z,16.52
2023-04-22T19:53:07.938Z,16.48
2023-04-22T19:55:37.404Z,16.52
2023-04-22T19:58:06.802Z,16.48
2023-04-22T20:00:35.294Z,16.44
2023-04-22T20:03:04.313Z,16.37
2023-04-22T20:05:32.902Z,16.25
2023-04-22T20:08:01.874Z,16.10
2023-04-22T20:10:31.728Z,15.97
2023-04-22T20:12:59.870Z,15.88
2023-04-22T20:15:28.163Z,15.84
2023-04-22T20:17:56.362Z,15.83
2023-04-22T20:20:24.640Z,15.78
2023-04-22T20:22:54.744Z,15.76
2023-04-22T20:25:23.505Z,15.83
2023-04-22T20:27:54.170Z,15.91
2023-04-22T20:30:22.413Z,15.79
2023-04-22T20:32:50.563Z,15.63
2023-04-22T20:35:19.246Z,15.55
2023-04-22T20:37:48.569Z,15.49
2023-04-22T20:40:18.897Z,15.39
2023-04-22T20:42:46.980Z,15.34
2023-04-22T20:45:17.766Z,15.34
2023-04-22T20:47:46.142Z,15.29
2023-04-22T20:50:14.740Z,15.22
2023-04-22T20:52:43.327Z,15.20
2023-04-22T20:55:11.343Z,15.14
2023-04-22T20:57:39.234Z,15.16
2023-04-22T21:00:10.208Z,15.22
2023-04-22T21:02:40.969Z,15.23
2023-04-22T21:05:11.124Z,15.20
2023-04-22T21:07:40.574Z,15.13
2023-04-22T21:10:10.011Z,15.12
2023-04-22T21:12:39.129Z,15.13
2023-04-22T21:15:08.737Z,15.12
2023-04-22T21:17:39.835Z,15.09
2023-04-22T21:20:10.921Z,15.04
2023-04-22T21:22:41.851Z,14.89
2023-04-22T21:25:11.704Z,14.78
2023-04-22T21:27:40.785Z,14.78
2023-04-22T21:30:10.315Z,14.80
2023-04-22T21:32:40.590Z,14.81
2023-04-22T21:35:10.411Z,14.76
2023-04-22T21:37:38.280Z,14.69
2023-04-22T21:40:11.214Z,14.69
2023-04-22T21:42:39.113Z,14.49
2023-04-22T21:45:08.177Z,14.28
2023-04-22T21:47:36.060Z,14.27
2023-04-22T21:50:03.955Z,14.35
2023-04-22T21:52:33.392Z,14.35
2023-04-22T21:55:01.591Z,14.31
2023-04-22T21:57:30.193Z,14.38
2023-04-22T21:59:58.060Z,14.04
2023-04-22T22:02:26.937Z,14.04
2023-04-22T22:04:54.916Z,14.08
2023-04-22T22:07:22.876Z,14.07
2023-04-22T22:09:52.851Z,14.11
2023-04-22T22:12:20.778Z,14.27
2023-04-22T22:14:48.636Z,14.32
2023-04-22T22:17:17.449Z,14.33
2023-04-22T22:19:45.507Z,14.37
2023-04-22T22:22:13.395Z,14.42
2023-04-22T22:24:41.670Z,14.46
2023-04-22T22:27:11.041Z,14.30
2023-04-22T22:29:40.755Z,14.18
2023-04-22T22:32:08.996Z,14.15
2023-04-22T22:34:36.986Z,14.13
2023-04-22T22:37:05.281Z,14.06
2023-04-22T22:39:33.249Z,14.10
2023-04-22T22:42:01.830Z,14.10
2023-04-22T22:44:31.475Z,14.13
2023-04-22T22:46:59.493Z,14.11
2023-04-22T22:49:27.419Z,14.13
2023-04-22T22:51:55.531Z,14.19
2023-04-22T22:54:23.414Z,14.25
2023-04-22T22:56:51.358Z,14.21
2023-04-22T22:59:19.240Z,14.20
2023-04-22T23:01:48.713Z,14.13
2023-04-22T23:04:16.943Z,14.07
2023-04-22T23:06:45.104Z,14.06
2023-04-22T23:09:15.088Z,14.01
2023-04-22T23:11:43.090Z,13.90
2023-04-22T23:14:11.628Z,13.84
2023-04-22T23:16:39.530Z,13.73
2023-04-22T23:19:08.887Z,13.64
2023-04-22T23:21:37.587Z,13.56
2023-04-22T23:24:06.473Z,13.59
2023-04-22T23:26:36.120Z,13.52
2023-04-22T23:29:04.526Z,13.46
2023-04-22T23:31:33.995Z,13.37
2023-04-22T23:34:03.753Z,13.36
2023-04-22T23:36:36.374Z,13.36
2023-04-22T23:39:06.648Z,13.30
2023-04-22T23:41:34.905Z,13.31
2023-04-22T23:44:02.988Z,13.34
2023-04-22T23:46:31.011Z,13.38
2023-04-22T23:48:59.504Z,13.51
2023-04-22T23:51:28.310Z,13.55
2023-04-22T23:53:57.611Z,13.60
2023-04-22T23:56:26.496Z,13.63
2023-04-22T23:58:54.897Z,13.62
